Time;durP1;ratioP1;P1;durP2;ratioP2;P2;SDS_P1;SDS_P2;PMS_P1;PMS_P2;Temp;Humidity;BMP_temperature;BMP_pressure;BME280_temperature;BME280_humidity;BME280_pressure;Samples;Min_cycle;Max_cycle;Signal;HPM_P1;HPM_P2
2022/11/14 00:01:11;;;;;;;6.20;4.60;;;6.50;99.90;;;6.92;nan;100722.56;5033195;28;20635;-63
2022/11/14 00:03:38;;;;;;;7.03;4.23;;;6.60;99.90;;;6.97;nan;100720.53;5043734;28;20685;-63
2022/11/14 00:06:06;;;;;;;5.20;3.80;;;6.70;99.90;;;6.94;nan;100729.31;5052066;28;21284;-63
2022/11/14 00:08:34;;;;;;;6.97;4.60;;;6.70;99.90;;;6.94;nan;100718.94;5053295;28;20619;-63
2022/11/14 00:11:01;;;;;;;9.03;4.43;;;6.80;99.90;;;7.07;nan;100707.91;5052156;28;20615;-63
2022/11/14 00:13:28;;;;;;;7.10;4.20;;;6.90;99.90;;;7.10;nan;100711.16;5035225;28;20627;-63
2022/11/14 00:15:55;;;;;;;6.60;4.03;;;6.90;99.90;;;7.17;nan;100712.47;5043618;28;20660;-63
2022/11/14 00:18:23;;;;;;;7.03;4.00;;;6.90;99.90;;;7.03;nan;100720.19;5032716;28;20690;-63
2022/11/14 00:20:51;;;;;;;7.67;4.43;;;6.90;99.90;;;7.14;nan;100717.00;5037077;28;20630;-64
2022/11/14 00:23:20;;;;;;;11.47;5.33;;;6.90;99.90;;;7.15;nan;100714.34;5015170;28;20644;-66
2022/11/14 00:25:47;;;;;;;11.17;5.33;;;7.00;99.90;;;7.18;nan;100714.13;5031333;28;20794;-62
2022/11/14 00:28:14;;;;;;;7.90;4.33;;;7.00;99.90;;;7.22;nan;100696.66;5050482;28;20632;-66
2022/11/14 00:30:46;;;;;;;3.77;3.37;;;7.00;99.90;;;7.31;nan;100702.13;5051067;28;20668;-63
2022/11/14 00:33:14;;;;;;;9.50;4.90;;;7.10;99.90;;;7.14;nan;100693.63;5052484;28;20612;-63
2022/11/14 00:35:54;;;;;;;5.13;3.20;;;7.10;99.90;;;7.21;nan;100688.03;5035234;28;20668;-63
2022/11/14 00:38:22;;;;;;;7.27;4.40;;;7.10;99.90;;;7.14;nan;100685.84;5042059;28;20682;-64
2022/11/14 00:40:49;;;;;;;5.50;4.20;;;7.10;99.90;;;7.19;nan;100684.69;5051565;28;20624;-63
2022/11/14 00:43:16;;;;;;;5.70;2.90;;;7.10;99.90;;;7.22;nan;100679.31;5035326;28;20646;-63
2022/11/14 00:45:44;;;;;;;10.67;5.50;;;7.10;99.90;;;7.28;nan;100678.13;5044839;28;20717;-63
2022/11/14 00:48:11;;;;;;;8.37;4.47;;;7.10;99.90;;;7.39;nan;100676.56;5049793;28;20636;-62
2022/11/14 00:50:38;;;;;;;7.17;4.37;;;7.20;99.90;;;7.28;nan;100683.31;5050239;28;21064;-64
2022/11/14 00:53:05;;;;;;;15.20;5.40;;;7.20;99.90;;;7.32;nan;100677.88;5050614;28;20685;-64
2022/11/14 00:55:32;;;;;;;6.90;4.53;;;7.20;99.90;;;7.27;nan;100677.28;5049986;28;20668;-63
2022/11/14 00:57:59;;;;;;;10.40;5.40;;;7.10;99.90;;;7.30;nan;100666.75;5051210;28;20632;-62
2022/11/14 01:00:26;;;;;;;9.60;4.67;;;7.20;99.90;;;7.40;nan;100667.88;5030583;28;21262;-63
2022/11/14 01:02:55;;;;;;;12.87;4.87;;;7.20;99.90;;;7.49;nan;100667.34;5040406;28;20642;-63
2022/11/14 01:05:24;;;;;;;11.77;5.00;;;7.30;99.90;;;7.41;nan;100673.91;5051984;28;21022;-63
2022/11/14 01:07:50;;;;;;;10.77;4.43;;;7.30;99.90;;;7.41;nan;100673.91;5032539;28;20982;-63
2022/11/14 01:10:18;;;;;;;13.37;5.60;;;7.30;99.90;;;7.60;nan;100675.31;5046965;28;20672;-63
2022/11/14 01:12:45;;;;;;;8.97;4.90;;;7.40;99.90;;;7.61;nan;100671.81;5049226;28;21084;-65
2022/11/14 01:15:12;;;;;;;10.40;4.00;;;7.40;99.90;;;7.78;nan;100661.25;5048626;28;20640;-63
2022/11/14 01:17:39;;;;;;;10.97;4.67;;;7.50;99.90;;;7.89;nan;100671.00;5041132;28;21199;-65
2022/11/14 01:20:06;;;;;;;9.17;4.77;;;7.60;99.90;;;7.98;nan;100665.25;5050718;28;21217;-63
2022/11/14 01:22:33;;;;;;;12.70;6.60;;;7.60;99.90;;;7.91;nan;100663.09;5051487;28;20625;-63
2022/11/14 01:25:00;;;;;;;12.67;6.17;;;7.70;99.90;;;7.87;nan;100662.47;5050911;28;20620;-64
2022/11/14 01:27:30;;;;;;;13.13;6.10;;;7.60;99.90;;;7.98;nan;100660.06;5051589;28;20635;-65
2022/11/14 01:29:57;;;;;;;12.40;6.57;;;7.70;99.90;;;8.03;nan;100657.19;5040798;28;20813;-63
2022/11/14 01:32:26;;;;;;;19.40;8.43;;;7.70;99.90;;;8.04;nan;100653.66;5067226;28;20680;-63
2022/11/14 01:34:53;;;;;;;11.27;5.90;;;7.70;99.90;;;8.09;nan;100654.22;5050549;28;20619;-63
2022/11/14 01:37:20;;;;;;;14.87;6.00;;;7.70;99.90;;;8.11;nan;100644.56;5050637;28;20689;-65
2022/11/14 01:39:47;;;;;;;13.10;6.30;;;7.80;99.90;;;8.08;nan;100639.53;5051227;28;20626;-64
2022/11/14 01:42:14;;;;;;;9.47;4.07;;;7.80;99.90;;;8.11;nan;100641.97;5049053;28;20619;-65
2022/11/14 01:44:51;;;;;;;12.37;5.10;;;7.80;99.90;;;8.07;nan;100632.69;5051170;28;21031;-63
2022/11/14 01:47:24;;;;;;;14.87;5.47;;;7.80;99.90;;;8.11;nan;100634.16;5041276;28;20615;-64
2022/11/14 01:49:57;;;;;;;12.10;5.80;;;7.80;99.90;;;8.11;nan;100628.97;5047778;28;20664;-63
2022/11/14 01:52:27;;;;;;;10.30;5.03;;;7.80;99.90;;;8.10;nan;100622.09;5039865;28;21005;-63
2022/11/14 01:54:59;;;;;;;13.83;6.27;;;7.80;99.90;;;8.13;nan;100617.56;5039951;28;20621;-63
2022/11/14 01:57:38;;;;;;;8.60;4.73;;;7.90;99.90;;;8.19;nan;100609.38;5064495;22;20748;-64
2022/11/14 02:00:10;;;;;;;19.33;6.67;;;7.90;99.90;;;8.22;nan;100601.34;5034617;28;20640;-63
2022/11/14 02:02:37;;;;;;;15.77;8.10;;;7.90;99.90;;;8.27;nan;100599.34;5032119;28;20636;-63
2022/11/14 02:05:12;;;;;;;10.23;5.10;;;7.90;99.90;;;8.30;nan;100593.13;5032511;28;20652;-63
2022/11/14 02:07:40;;;;;;;16.10;6.83;;;8.00;99.90;;;8.22;nan;100590.97;5013730;28;20694;-64
2022/11/14 02:10:15;;;;;;;18.30;9.20;;;7.90;99.90;;;8.27;nan;100583.75;5030929;28;20668;-63
2022/11/14 02:12:43;;;;;;;22.73;8.40;;;7.90;99.90;;;8.33;nan;100577.31;5035102;28;20636;-63
2022/11/14 02:15:12;;;;;;;14.67;7.27;;;8.00;99.90;;;8.26;nan;100576.06;5017624;28;20678;-64
2022/11/14 02:17:40;;;;;;;16.50;9.00;;;8.00;99.90;;;8.26;nan;100576.06;5018504;28;20661;-64
2022/11/14 02:20:10;;;;;;;11.40;6.03;;;8.00;99.90;;;8.29;nan;100573.25;5039110;28;20668;-64
2022/11/14 02:22:41;;;;;;;12.00;5.00;;;8.00;99.90;;;8.20;nan;100577.22;5053019;28;20635;-64
2022/11/14 02:25:12;;;;;;;10.77;4.97;;;7.90;99.90;;;8.28;nan;100576.78;5044726;28;20635;-64
2022/11/14 02:27:40;;;;;;;8.23;4.67;;;8.00;99.90;;;8.24;nan;100580.50;5016571;28;20667;-64
2022/11/14 02:30:15;;;;;;;8.60;4.30;;;7.90;99.90;;;8.21;nan;100583.28;5033954;28;20671;-64
2022/11/14 02:32:42;;;;;;;11.53;5.33;;;7.90;99.90;;;8.21;nan;100588.47;5019844;28;20698;-64
2022/11/14 02:35:29;;;;;;;11.07;4.97;;;7.90;99.90;;;8.20;nan;100576.41;5040224;28;21279;-63
2022/11/14 02:37:56;;;;;;;16.03;8.60;;;7.90;99.90;;;8.14;nan;100567.22;5039916;28;20633;-63
2022/11/14 02:40:23;;;;;;;11.57;6.57;;;7.90;99.90;;;8.18;nan;100567.84;5034206;28;21473;-64
2022/11/14 02:42:50;;;;;;;13.37;7.00;;;7.90;99.90;;;8.18;nan;100565.25;5026937;28;20640;-64
2022/11/14 02:45:19;;;;;;;6.77;3.67;;;7.90;99.90;;;8.10;nan;100560.56;5032136;28;21145;-63
2022/11/14 02:47:46;;;;;;;14.83;7.10;;;7.90;99.90;;;7.92;nan;100561.72;5034490;28;20685;-64
2022/11/14 02:50:13;;;;;;;10.87;4.60;;;7.90;99.90;;;8.05;nan;100551.38;5033252;28;20664;-64
2022/11/14 02:52:40;;;;;;;18.10;7.27;;;7.80;99.90;;;8.13;nan;100549.13;5035490;28;20638;-64
2022/11/14 02:55:08;;;;;;;11.30;4.47;;;7.90;99.90;;;8.08;nan;100556.38;5030435;28;20635;-63
2022/11/14 02:57:35;;;;;;;13.43;5.20;;;7.90;99.90;;;8.19;nan;100553.94;5036401;28;20697;-64
2022/11/14 03:00:04;;;;;;;15.00;6.17;;;7.90;99.90;;;8.17;nan;100550.63;5044132;28;20658;-64
2022/11/14 03:02:35;;;;;;;10.70;5.57;;;7.90;99.90;;;8.24;nan;100549.31;5045198;28;21204;-64
2022/11/14 03:05:03;;;;;;;12.70;6.70;;;8.00;99.90;;;8.19;nan;100547.00;5038779;28;20644;-63
2022/11/14 03:07:31;;;;;;;11.23;6.50;;;7.90;99.90;;;8.16;nan;100546.31;5033964;28;20660;-64
2022/11/14 03:09:58;;;;;;;15.07;6.90;;;7.90;99.90;;;8.25;nan;100544.03;5033069;28;20671;-64
2022/11/14 03:12:25;;;;;;;14.53;7.80;;;7.90;99.90;;;8.25;nan;100540.56;5035239;28;20681;-63
2022/11/14 03:14:52;;;;;;;12.87;6.30;;;8.00;99.90;;;8.19;nan;100530.56;5032061;28;21184;-64
2022/11/14 03:17:19;;;;;;;5.33;3.87;;;8.00;99.90;;;8.24;nan;100531.09;5033229;28;20732;-63
2022/11/14 03:19:45;;;;;;;10.70;5.67;;;8.00;99.90;;;8.09;nan;100526.88;5020943;28;20671;-64
2022/11/14 03:22:12;;;;;;;10.83;5.07;;;8.00;99.90;;;7.96;nan;100528.56;5032752;28;20619;-63
2022/11/14 03:24:39;;;;;;;10.73;5.60;;;7.90;99.90;;;7.89;nan;100522.09;5034429;28;20621;-63
2022/11/14 03:27:06;;;;;;;10.17;5.40;;;7.80;99.90;;;7.84;nan;100522.38;5033933;28;20712;-63
2022/11/14 03:29:33;;;;;;;9.67;4.83;;;7.80;99.90;;;7.87;nan;100529.97;5039971;28;21277;-63
2022/11/14 03:32:00;;;;;;;7.33;4.30;;;7.80;99.90;;;7.72;nan;100521.38;5039402;28;20634;-64
2022/11/14 03:34:27;;;;;;;3.47;1.63;;;7.80;99.90;;;7.80;nan;100526.94;5038032;28;20631;-63
2022/11/14 03:36:54;;;;;;;6.40;3.63;;;7.70;99.90;;;7.80;nan;100533.88;5052076;28;20662;-64
2022/11/14 03:39:21;;;;;;;13.57;5.60;;;7.70;99.90;;;7.85;nan;100531.84;5033572;28;20701;-64
2022/11/14 03:41:48;;;;;;;7.40;4.47;;;7.70;99.90;;;7.98;nan;100531.91;5033647;28;21241;-64
2022/11/14 03:44:14;;;;;;;13.33;6.07;;;7.80;99.90;;;7.94;nan;100533.88;5032909;28;20636;-63
2022/11/14 03:46:41;;;;;;;7.07;3.83;;;7.80;99.90;;;7.78;nan;100535.75;5029915;28;20674;-63
2022/11/14 03:49:08;;;;;;;7.37;4.47;;;7.70;99.90;;;7.68;nan;100538.09;5032413;28;20687;-63
2022/11/14 03:51:35;;;;;;;15.47;6.57;;;7.70;99.90;;;7.62;nan;100545.41;5031743;28;21245;-63
2022/11/14 03:54:02;;;;;;;6.67;4.10;;;7.60;99.90;;;7.75;nan;100539.34;5034094;28;20775;-63
2022/11/14 03:56:29;;;;;;;11.17;6.07;;;7.60;99.90;;;7.76;nan;100532.41;5036402;28;20652;-63
2022/11/14 03:58:56;;;;;;;7.97;4.07;;;7.60;99.90;;;7.64;nan;100534.00;5044202;28;20637;-64
2022/11/14 04:01:23;;;;;;;4.87;3.67;;;7.60;99.90;;;7.70;nan;100530.19;5041117;28;20635;-63
2022/11/14 04:03:50;;;;;;;4.97;3.87;;;7.60;99.90;;;7.75;nan;100531.56;5051660;28;21075;-63
2022/11/14 04:06:17;;;;;;;5.47;3.00;;;7.60;99.90;;;7.74;nan;100522.13;5041167;28;20795;-63
2022/11/14 04:08:44;;;;;;;6.83;2.47;;;7.60;99.90;;;7.71;nan;100532.69;5032861;28;20629;-63
2022/11/14 04:11:11;;;;;;;5.83;4.40;;;7.60;99.90;;;7.88;nan;100530.81;5031184;28;20675;-63
2022/11/14 04:13:38;;;;;;;8.07;4.53;;;7.70;99.90;;;7.84;nan;100528.41;5049182;28;20697;-63
2022/11/14 04:16:05;;;;;;;6.13;3.70;;;7.70;99.90;;;7.76;nan;100519.41;5035081;28;20656;-64
2022/11/14 04:18:32;;;;;;;6.20;3.73;;;7.60;99.90;;;7.68;nan;100519.06;5048256;28;20633;-64
2022/11/14 04:20:59;;;;;;;7.30;3.63;;;7.60;99.90;;;7.86;nan;100510.13;5033702;28;20634;-64
2022/11/14 04:23:26;;;;;;;7.30;4.23;;;7.60;99.90;;;7.64;nan;100510.66;5031579;28;20637;-64
2022/11/14 04:25:53;;;;;;;11.60;5.43;;;7.60;99.90;;;7.59;nan;100507.47;5032442;28;20714;-63
2022/11/14 04:28:19;;;;;;;4.63;3.80;;;7.60;99.90;;;7.68;nan;100504.31;5033579;28;20636;-63
2022/11/14 04:30:46;;;;;;;5.67;3.47;;;7.60;99.90;;;7.71;nan;100511.91;5046406;28;20664;-64
2022/11/14 04:33:13;;;;;;;7.03;4.37;;;7.50;99.90;;;7.90;nan;100509.00;5019931;28;20684;-63
2022/11/14 04:35:43;;;;;;;8.97;4.80;;;7.60;99.90;;;7.69;nan;100507.72;5030962;28;20636;-65
2022/11/14 04:38:13;;;;;;;10.10;4.97;;;7.60;99.90;;;7.55;nan;100521.59;5043884;28;20685;-64
2022/11/14 04:40:51;;;;;;;10.60;4.87;;;7.60;99.90;;;7.35;nan;100511.56;5012629;28;20616;-63
2022/11/14 04:43:19;;;;;;;8.17;4.77;;;7.40;99.90;;;7.34;nan;100509.91;5034505;28;20693;-62
2022/11/14 04:45:47;;;;;;;5.67;4.20;;;7.30;99.90;;;7.42;nan;100499.91;5030377;28;21169;-64
2022/11/14 04:48:14;;;;;;;10.40;5.30;;;7.30;99.90;;;7.20;nan;100503.88;5039510;28;20624;-63
2022/11/14 04:50:41;;;;;;;8.37;4.90;;;7.20;99.90;;;7.20;nan;100498.69;5018904;28;21095;-64
2022/11/14 04:53:11;;;;;;;4.03;3.07;;;7.20;99.90;;;7.26;nan;100501.72;5032621;28;20630;-60
2022/11/14 04:55:38;;;;;;;9.80;4.53;;;7.20;99.90;;;7.35;nan;100511.56;5030431;28;20643;-65
2022/11/14 04:58:05;;;;;;;6.63;4.57;;;7.30;99.90;;;7.33;nan;100504.78;5029928;28;20629;-63
2022/11/14 05:00:32;;;;;;;7.20;4.03;;;7.20;99.90;;;7.62;nan;100501.28;5029638;28;20640;-64
2022/11/14 05:02:59;;;;;;;5.50;3.20;;;7.30;99.90;;;7.71;nan;100511.91;5030566;28;20621;-63
2022/11/14 05:05:26;;;;;;;7.73;3.60;;;7.40;99.90;;;7.68;nan;100506.91;5030704;28;20739;-63
2022/11/14 05:07:54;;;;;;;9.23;5.20;;;7.50;99.90;;;7.81;nan;100497.41;5031845;28;21008;-63
2022/11/14 05:10:21;;;;;;;7.67;4.43;;;7.60;99.90;;;7.86;nan;100493.72;5030292;28;20665;-64
2022/11/14 05:12:48;;;;;;;5.50;4.10;;;7.60;99.90;;;7.56;nan;100492.06;5030867;28;21367;-64
2022/11/14 05:15:15;;;;;;;7.10;4.17;;;7.50;99.90;;;7.52;nan;100489.75;5031435;28;20625;-63
2022/11/14 05:17:42;;;;;;;4.90;3.47;;;7.50;99.90;;;7.60;nan;100488.38;5029387;28;20710;-64
2022/11/14 05:20:09;;;;;;;10.60;4.23;;;7.40;99.90;;;7.51;nan;100478.56;5030960;28;20680;-63
2022/11/14 05:22:37;;;;;;;4.90;3.63;;;7.40;99.90;;;7.51;nan;100486.34;5029653;28;20682;-63
2022/11/14 05:25:06;;;;;;;9.53;4.67;;;7.40;99.90;;;7.27;nan;100487.00;5031492;28;20627;-63
2022/11/14 05:27:33;;;;;;;5.67;3.70;;;7.30;99.90;;;7.36;nan;100495.06;5038223;28;20654;-63
2022/11/14 05:30:00;;;;;;;7.80;4.43;;;7.30;99.90;;;7.48;nan;100494.31;5030707;28;20628;-63
2022/11/14 05:32:27;;;;;;;6.00;3.40;;;7.30;99.90;;;7.45;nan;100497.09;5033142;28;20669;-63
2022/11/14 05:34:53;;;;;;;5.03;3.50;;;7.30;99.90;;;7.33;nan;100495.25;5049016;28;20628;-64
2022/11/14 05:37:20;;;;;;;3.07;2.80;;;7.30;99.90;;;7.38;nan;100488.03;5044321;28;21336;-64
2022/11/14 05:39:47;;;;;;;5.20;3.57;;;7.30;99.90;;;7.19;nan;100487.47;5030114;28;20999;-64
2022/11/14 05:42:14;;;;;;;3.10;2.17;;;7.20;99.90;;;7.33;nan;100495.25;5030851;28;20636;-64
2022/11/14 05:44:41;;;;;;;8.10;3.80;;;7.20;99.90;;;7.40;nan;100501.75;5029587;28;21012;-64
2022/11/14 05:47:08;;;;;;;5.90;4.00;;;7.20;99.90;;;7.50;nan;100491.63;5034300;28;20664;-63
2022/11/14 05:49:35;;;;;;;9.40;4.50;;;7.20;99.90;;;7.47;nan;100469.31;5037760;28;21077;-64
2022/11/14 05:52:02;;;;;;;5.10;3.27;;;7.30;99.90;;;7.50;nan;100468.25;5036238;28;20669;-63
2022/11/14 05:54:29;;;;;;;6.50;3.77;;;7.30;99.90;;;7.33;nan;100479.69;5037613;28;20635;-63
2022/11/14 05:56:56;;;;;;;5.43;3.40;;;7.30;99.90;;;7.27;nan;100480.06;5036202;28;20751;-63
2022/11/14 05:59:23;;;;;;;6.23;1.90;;;7.30;99.90;;;7.47;nan;100479.69;5037003;28;20651;-63
2022/11/14 06:01:50;;;;;;;4.20;2.97;;;7.30;99.90;;;7.37;nan;100486.34;5035330;28;20643;-64
2022/11/14 06:04:17;;;;;;;8.47;4.60;;;7.30;99.90;;;7.16;nan;100479.88;5037288;28;20628;-63
2022/11/14 06:06:44;;;;;;;3.50;3.17;;;7.20;99.90;;;7.17;nan;100471.16;5035531;28;20655;-63
2022/11/14 06:09:11;;;;;;;4.30;2.87;;;7.20;99.90;;;7.16;nan;100466.03;5037256;28;20994;-64
2022/11/14 06:11:38;;;;;;;7.57;3.93;;;7.10;99.90;;;7.24;nan;100474.22;5035509;28;20662;-61
2022/11/14 06:14:05;;;;;;;7.87;4.30;;;7.10;99.90;;;7.33;nan;100471.06;5030749;28;21253;-64
2022/11/14 06:16:36;;;;;;;7.00;4.30;;;7.10;99.90;;;7.41;nan;100466.25;5036150;28;20699;-64
2022/11/14 06:19:04;;;;;;;6.47;3.67;;;7.10;99.90;;;7.49;nan;100457.06;5034917;28;20632;-63
2022/11/14 06:21:31;;;;;;;9.87;4.70;;;7.20;99.90;;;7.41;nan;100461.06;5037147;28;20634;-63
2022/11/14 06:23:58;;;;;;;8.20;3.90;;;7.20;99.90;;;7.49;nan;100464.84;5037179;28;20673;-64
2022/11/14 06:26:31;;;;;;;5.37;3.30;;;7.20;99.90;;;7.25;nan;100461.16;5036651;28;21084;-63
2022/11/14 06:28:59;;;;;;;9.23;4.13;;;7.20;99.90;;;7.41;nan;100461.88;5037350;28;21172;-64
2022/11/14 06:31:26;;;;;;;8.43;4.77;;;7.20;99.90;;;7.49;nan;100446.69;5035897;28;20718;-64
2022/11/14 06:33:53;;;;;;;7.17;3.30;;;7.30;99.90;;;7.44;nan;100453.06;5039526;28;20739;-64
2022/11/14 06:36:20;;;;;;;7.87;3.87;;;7.30;99.90;;;7.47;nan;100458.06;5035903;28;20655;-63
2022/11/14 06:38:47;;;;;;;7.30;3.37;;;7.30;99.90;;;7.41;nan;100456.69;5039597;28;20709;-63
2022/11/14 06:41:20;;;;;;;3.93;3.20;;;7.30;99.90;;;7.48;nan;100454.53;5035905;28;22302;-64
2022/11/14 06:43:51;;;;;;;3.97;3.00;;;7.30;99.90;;;7.58;nan;100456.47;5037915;28;21021;-63
2022/11/14 06:46:20;;;;;;;7.53;3.67;;;7.40;99.90;;;7.65;nan;100467.31;5035335;28;20664;-63
2022/11/14 06:48:49;;;;;;;4.77;2.97;;;7.40;99.90;;;7.74;nan;100464.97;5035820;28;20645;-64
2022/11/14 06:51:16;;;;;;;5.77;3.90;;;7.50;99.90;;;7.63;nan;100464.81;5042543;28;21034;-63
2022/11/14 06:53:44;;;;;;;4.17;2.67;;;7.40;99.90;;;7.68;nan;100465.38;5036829;28;20636;-63
2022/11/14 06:56:14;;;;;;;6.07;3.50;;;7.40;99.90;;;7.71;nan;100459.97;5036437;28;20669;-63
2022/11/14 06:58:45;;;;;;;4.07;3.10;;;7.50;99.90;;;7.69;nan;100464.44;5037329;28;20915;-63
2022/11/14 07:01:16;;;;;;;6.80;4.10;;;7.50;99.90;;;7.82;nan;100462.72;5031603;28;20633;-63
2022/11/14 07:03:44;;;;;;;11.07;4.07;;;7.50;99.90;;;7.82;nan;100461.88;5032365;28;20950;-64
2022/11/14 07:06:18;;;;;;;3.33;3.00;;;7.60;99.90;;;7.87;nan;100472.00;5051349;28;20663;-61
2022/11/14 07:08:45;;;;;;;3.13;2.60;;;7.60;99.90;;;7.72;nan;100464.25;5032581;28;20635;-63
2022/11/14 07:11:25;;;;;;;2.50;2.00;;;7.60;99.90;;;7.74;nan;100454.59;5032983;28;21301;-64
2022/11/14 07:14:00;;;;;;;7.50;3.33;;;7.60;99.90;;;7.70;nan;100462.69;5032631;28;21198;-63
2022/11/14 07:16:34;;;;;;;1.67;1.57;;;7.50;99.90;;;7.56;nan;100463.53;5032353;28;21231;-63
2022/11/14 07:19:04;;;;;;;4.23;1.80;;;7.50;99.90;;;7.42;nan;100462.72;5027452;28;20662;-63
2022/11/14 07:21:33;;;;;;;3.03;1.63;;;7.40;99.90;;;7.45;nan;100470.31;5047068;28;20694;-64
2022/11/14 07:24:00;;;;;;;4.20;3.07;;;7.40;99.90;;;7.27;nan;100471.44;5053058;28;20623;-61
2022/11/14 07:26:27;;;;;;;6.77;2.70;;;7.30;99.90;;;7.26;nan;100469.78;5036134;28;21030;-64
2022/11/14 07:28:54;;;;;;;6.60;3.70;;;7.20;99.90;;;7.28;nan;100483.50;5031761;28;21203;-63
2022/11/14 07:31:27;;;;;;;4.90;2.70;;;7.20;99.90;;;7.29;nan;100482.56;5034177;28;20668;-63
2022/11/14 07:33:54;;;;;;;12.17;3.60;;;7.20;99.90;;;7.33;nan;100490.06;5032256;28;20628;-63
2022/11/14 07:36:23;;;;;;;1.73;1.63;;;7.20;99.90;;;7.31;nan;100486.72;5042565;28;20665;-63
2022/11/14 07:38:50;;;;;;;2.70;1.63;;;7.20;99.90;;;7.30;nan;100479.88;5032140;28;20624;-63
2022/11/14 07:41:17;;;;;;;7.03;3.37;;;7.20;99.90;;;7.32;nan;100478.03;5031139;28;20659;-63
2022/11/14 07:43:45;;;;;;;7.13;3.60;;;7.10;99.90;;;7.44;nan;100484.22;5014355;28;20744;-63
2022/11/14 07:46:15;;;;;;;5.90;4.07;;;7.20;99.90;;;7.50;nan;100483.84;5037205;28;20655;-63
2022/11/14 07:48:42;;;;;;;5.10;3.70;;;7.20;99.90;;;7.56;nan;100489.47;5026407;28;20633;-64
2022/11/14 07:51:18;;;;;;;4.17;2.90;;;7.30;99.90;;;7.61;nan;100503.03;5046886;28;20663;-63
2022/11/14 07:53:45;;;;;;;2.70;2.33;;;7.30;99.90;;;7.47;nan;100502.22;5020914;28;20633;-64
2022/11/14 07:56:12;;;;;;;2.87;2.03;;;7.40;99.90;;;7.68;nan;100498.28;5050816;22;20628;-65
2022/11/14 07:58:40;;;;;;;2.77;2.50;;;7.40;99.90;;;7.86;nan;100501.50;5020598;28;20701;-65
2022/11/14 08:01:10;;;;;;;2.23;2.10;;;7.50;99.90;;;7.98;nan;100498.97;5048686;28;21046;-63
2022/11/14 08:03:37;;;;;;;6.50;3.73;;;7.60;99.90;;;8.05;nan;100497.63;5045303;28;20643;-63
2022/11/14 08:06:13;;;;;;;9.10;5.60;;;7.60;99.90;;;8.25;nan;100493.78;5047217;28;21164;-65
2022/11/14 08:08:40;;;;;;;13.97;6.57;;;7.80;99.90;;;8.85;nan;100502.78;5029026;28;21155;-65
2022/11/14 08:11:07;;;;;;;9.63;5.50;;;8.00;99.90;;;9.46;nan;100498.59;5018278;28;20644;-66
2022/11/14 08:13:34;;;;;;;13.87;5.80;;;8.40;99.90;;;9.65;nan;100496.38;5028900;28;21007;-65
2022/11/14 08:16:06;;;;;;;5.10;3.83;;;8.70;99.90;;;9.62;nan;100489.66;5032007;28;20641;-66
2022/11/14 08:18:38;;;;;;;9.67;5.47;;;8.80;99.90;;;10.09;nan;100486.25;5023963;28;21214;-65
2022/11/14 08:21:06;;;;;;;12.17;6.03;;;9.00;99.90;;;13.04;nan;100490.78;5014307;28;20628;-65
2022/11/14 08:23:33;;;;;;;7.00;4.37;;;10.20;99.90;;;16.96;nan;100499.72;5030992;28;20635;-63
2022/11/14 08:26:00;;;;;;;7.30;4.60;;;12.50;99.90;;;17.05;nan;100510.16;5032100;28;20625;-62
2022/11/14 08:28:27;;;;;;;7.00;4.53;;;13.80;99.90;;;15.35;nan;100495.34;5037428;28;20629;-63
2022/11/14 08:31:02;;;;;;;7.10;5.00;;;13.80;99.90;;;14.01;nan;100488.38;5031749;28;20633;-67
2022/11/14 08:33:30;;;;;;;5.90;5.00;;;13.30;99.90;;;13.06;nan;100477.56;5030283;28;20640;-64
2022/11/14 08:36:02;;;;;;;8.00;4.90;;;12.70;99.90;;;12.48;nan;100482.38;5030343;28;20625;-64
2022/11/14 08:38:31;;;;;;;6.00;4.07;;;12.10;99.90;;;11.70;nan;100475.72;5038066;28;20632;-64
2022/11/14 08:41:00;;;;;;;6.70;4.10;;;11.50;99.90;;;11.50;nan;100471.19;5051812;28;20987;-65
2022/11/14 08:43:27;;;;;;;9.23;4.77;;;11.20;99.90;;;11.13;nan;100475.00;5041458;28;20671;-65
2022/11/14 08:46:03;;;;;;;5.80;4.30;;;10.90;99.90;;;10.92;nan;100465.22;5019538;28;20667;-65
2022/11/14 08:48:31;;;;;;;7.13;4.67;;;10.60;99.90;;;10.85;nan;100466.66;5029954;28;20690;-67
2022/11/14 08:51:06;;;;;;;10.07;6.10;;;10.50;99.90;;;11.10;nan;100463.00;5029589;28;20613;-65
2022/11/14 08:53:33;;;;;;;7.90;4.80;;;10.40;99.90;;;11.38;nan;100477.38;5041059;28;20656;-66
2022/11/14 08:56:00;;;;;;;6.33;4.10;;;10.50;99.90;;;11.22;nan;100474.28;5017260;28;21043;-65
2022/11/14 08:58:30;;;;;;;4.93;4.23;;;10.50;99.90;;;10.82;nan;100487.75;5044787;28;20633;-65
2022/11/14 09:01:06;;;;;;;9.10;5.30;;;10.40;99.90;;;10.58;nan;100481.78;5011776;28;20631;-65
2022/11/14 09:03:33;;;;;;;8.40;4.60;;;10.30;99.90;;;10.50;nan;100484.09;5039010;28;20654;-67
2022/11/14 09:06:01;;;;;;;9.67;5.77;;;10.10;99.90;;;10.54;nan;100488.13;5031159;28;20637;-65
2022/11/14 09:08:29;;;;;;;9.30;5.57;;;10.10;99.90;;;10.58;nan;100483.53;5031788;28;21013;-65
2022/11/14 09:11:01;;;;;;;5.27;3.97;;;10.00;99.90;;;10.53;nan;100483.88;5012267;28;21014;-65
2022/11/14 09:13:33;;;;;;;6.87;4.60;;;10.00;99.90;;;10.31;nan;100482.97;5028955;28;20660;-65
2022/11/14 09:16:01;;;;;;;9.00;5.03;;;9.90;99.90;;;10.19;nan;100479.47;5026429;28;21010;-64
2022/11/14 09:18:30;;;;;;;8.43;4.60;;;9.80;99.90;;;10.07;nan;100482.94;5030097;28;20641;-64
2022/11/14 09:21:07;;;;;;;8.07;4.70;;;9.70;99.90;;;10.04;nan;100480.53;5015924;28;20641;-64
2022/11/14 09:23:35;;;;;;;8.00;4.57;;;9.70;99.90;;;9.86;nan;100480.06;5029237;28;20625;-65
2022/11/14 09:26:07;;;;;;;4.00;3.30;;;9.60;99.90;;;9.95;nan;100482.03;5030823;28;20690;-65
2022/11/14 09:28:34;;;;;;;6.20;4.00;;;9.50;99.90;;;9.93;nan;100477.88;5031646;28;20633;-65
2022/11/14 09:31:07;;;;;;;7.50;4.23;;;9.50;99.90;;;9.86;nan;100476.66;5014165;28;20655;-64
2022/11/14 09:33:35;;;;;;;6.70;4.47;;;9.50;99.90;;;9.75;nan;100480.00;5015079;28;20730;-63
2022/11/14 09:36:06;;;;;;;6.33;4.13;;;9.40;99.90;;;9.88;nan;100478.19;5030844;28;20632;-66
2022/11/14 09:38:34;;;;;;;9.40;4.30;;;9.40;99.90;;;9.68;nan;100488.38;5029901;28;21191;-65
2022/11/14 09:41:14;;;;;;;7.10;3.97;;;9.40;99.90;;;9.66;nan;100466.81;5027075;28;20683;-65
2022/11/14 09:44:23;;;;;;;6.00;4.10;;;9.30;99.90;;;9.72;nan;100468.97;5031328;28;20629;-67
2022/11/14 09:47:03;;;;;;;5.37;4.20;;;9.30;99.90;;;9.68;nan;100476.19;5022874;28;20664;-67
2022/11/14 09:49:39;;;;;;;6.30;4.27;;;9.30;99.90;;;9.74;nan;100467.09;5043422;28;20705;-67
2022/11/14 09:52:36;;;;;;;8.40;4.17;;;9.30;99.90;;;9.73;nan;100465.44;5036763;28;20791;-65
2022/11/14 09:55:19;;;;;;;6.67;4.50;;;9.30;99.90;;;9.80;nan;100466.66;5002930;28;21180;-66
2022/11/14 09:57:46;;;;;;;7.00;4.47;;;9.40;99.90;;;9.82;nan;100464.75;5030926;28;20669;-66
2022/11/14 10:00:18;;;;;;;11.90;7.13;;;9.40;99.90;;;9.86;nan;100468.84;5011936;28;20624;-65
2022/11/14 10:02:53;;;;;;;8.73;5.33;;;9.40;99.90;;;9.87;nan;100465.28;5027463;28;20714;-64
2022/11/14 10:05:38;;;;;;;13.87;7.20;;;9.40;99.90;;;9.93;nan;100463.06;5024035;28;20629;-64
2022/11/14 10:08:14;;;;;;;6.30;4.87;;;9.40;99.90;;;9.97;nan;100461.06;5027892;28;20737;-64
2022/11/14 10:10:51;;;;;;;9.70;6.10;;;9.50;99.90;;;10.06;nan;100466.47;5013602;28;20721;-64
2022/11/14 10:13:59;;;;;;;9.50;5.60;;;9.50;99.90;;;10.25;nan;100457.31;5001162;28;20665;-64
2022/11/14 10:16:38;;;;;;;9.73;5.47;;;9.60;99.90;;;10.51;nan;100458.84;5025554;28;20699;-65
2022/11/14 10:19:26;;;;;;;11.30;6.60;;;9.80;99.90;;;10.86;nan;100457.84;5026105;28;20686;-63
2022/11/14 10:22:21;;;;;;;8.07;4.40;;;10.00;99.90;;;11.47;nan;100448.75;5043236;28;20674;-64
2022/11/14 10:25:17;;;;;;;8.30;5.63;;;10.30;99.90;;;12.17;nan;100440.53;5031235;28;20637;-64
2022/11/14 10:28:34;;;;;;;9.23;5.33;;;10.70;99.90;;;12.45;nan;100440.78;5040932;28;20668;-65
2022/11/14 10:31:58;;;;;;;13.87;4.80;;;11.20;99.90;;;12.51;nan;100444.66;5014273;28;20698;-65
2022/11/14 10:34:47;;;;;;;8.90;5.10;;;11.40;99.90;;;12.58;nan;100440.59;5019554;28;20637;-66
2022/11/14 10:37:30;;;;;;;9.77;4.50;;;11.50;99.90;;;12.71;nan;100432.53;5025595;28;20648;-64
2022/11/14 10:40:16;;;;;;;7.60;4.87;;;11.70;99.90;;;12.91;nan;100444.75;5023581;28;20678;-65
2022/11/14 10:42:49;;;;;;;5.60;3.77;;;11.70;99.90;;;13.01;nan;100441.22;5015142;28;20601;-64
2022/11/14 10:45:42;;;;;;;7.30;4.40;;;11.90;99.90;;;13.08;nan;100428.47;5011411;28;20629;-65
2022/11/14 10:48:18;;;;;;;9.10;5.10;;;12.00;99.90;;;12.97;nan;100420.66;5026057;28;20615;-65